Погода Усфанна 2 недели

Мекка, Саудовская Аравия

28 февраля-12 марта
  • 28февраля
    Сегодня
    +19°
    +30°
    Ясно и безоблачно
    ВремяПогодаТемператураВлажностьДавлениеВетер, м/сВероятность осадков
    00:00Ясно и безоблачно+23°C73 %757 мм2.5 м/с1 %
    03:00Ясно и безоблачно+21°C73 %756 мм2.6 м/с2 %
    06:00Ясно и безоблачно+20°C65 %757 мм2.0 м/с2 %
    09:00Ясно и безоблачно+24°C59 %758 мм3.4 м/с2 %
    12:00Ясно и безоблачно+29°C27 %757 мм4.5 м/с2 %
    15:00Ясно и безоблачно+28°C36 %756 мм6.4 м/с2 %
    18:00Ясно и безоблачно+26°C48 %756 мм5.3 м/с2 %
    21:00Ясно и безоблачно+23°C64 %757 мм3.8 м/с2 %
  • 29февраля
    Четверг
    +24°
    +32°
    Ясно и безоблачно
    ВремяПогодаТемператураВлажностьДавлениеВетер, м/сВероятность осадков
    00:00Ясно и безоблачно+22°C77 %757 мм2.7 м/с2 %
    03:00Ясно и безоблачно+20°C81 %756 мм2.7 м/с2 %
    06:00Ясно и безоблачно+20°C68 %756 мм2.0 м/с2 %
    09:00Ясно и безоблачно+25°C29 %756 мм2.5 м/с2 %
    12:00Ясно и безоблачно+32°C21 %756 мм2.4 м/с2 %
    15:00Ясно и безоблачно+30°C37 %755 мм5.8 м/с2 %
    18:00Ясно и безоблачно+28°C46 %755 мм5.0 м/с2 %
    21:00Ясно и безоблачно+26°C63 %756 мм3.2 м/с2 %
  • 01марта
    Пятница
    +25°
    +34°
    Ясно и безоблачно
    ВремяПогодаТемператураВлажностьДавлениеВетер, м/сВероятность осадков
    00:00Ясно и безоблачно+25°C58 %756 мм2.2 м/с2 %
    03:00Ясно и безоблачно+27°C28 %754 мм5.4 м/с2 %
    06:00Ясно и безоблачно+26°C31 %755 мм4.5 м/с2 %
    09:00Ясно и безоблачно+29°C28 %756 мм4.7 м/с2 %
    12:00Ясно и безоблачно+33°C33 %756 мм3.2 м/с2 %
    15:00Ясно и безоблачно+32°C43 %754 мм5.5 м/с2 %
    18:00Ясно и безоблачно+29°C55 %755 мм3.9 м/с2 %
    21:00Ясно и безоблачно+27°C64 %756 мм1.8 м/с2 %
  • 02марта
    Суббота
    +24°
    +31°
    Ясно и безоблачно
    ВремяПогодаТемператураВлажностьДавлениеВетер, м/сВероятность осадков
    00:00Практически безоблачно+27°C69 %756 мм1.2 м/с2 %
    03:00Практически безоблачно+26°C63 %755 мм0.8 м/с2 %
    06:00Практически безоблачно+26°C55 %755 мм0.0 м/с2 %
    09:00Пасмурно, сплошная облачность+29°C46 %756 мм0.8 м/с2 %
    12:00Практически безоблачно+31°C47 %756 мм2.6 м/с2 %
    15:00Ясно и безоблачно+31°C54 %754 мм5.2 м/с4 %
    18:00Ясно и безоблачно+29°C61 %755 мм3.4 м/с2 %
    21:00Практически безоблачно+27°C62 %756 мм2.9 м/с10 %
  • 03марта
    Воскресенье
    +21°
    +30°
    Ясно и безоблачно
    ВремяПогодаТемператураВлажностьДавлениеВетер, м/сВероятность осадков
    00:00Облачно с прояснениями+27°C58 %756 мм1.2 м/с13 %
    03:00Небольшая облачность+25°C80 %755 мм1.4 м/с11 %
    06:00Практически безоблачно+25°C84 %755 мм0.7 м/с10 %
    09:00Практически безоблачно+27°C63 %756 мм1.6 м/с4 %
    12:00Практически безоблачно+30°C61 %756 мм3.5 м/с9 %
    15:00Ясно и безоблачно+30°C51 %754 мм6.3 м/с8 %
    18:00Ясно и безоблачно+27°C58 %755 мм5.8 м/с2 %
    21:00Ясно и безоблачно+25°C69 %756 мм4.6 м/с2 %
Мы используем cookies
Соглашаюсь